createdAt,value
2018-07-01T00:00:56.837Z,0.00
2018-07-01T00:01:56.783Z,0.00
2018-07-01T00:02:56.724Z,0.00
2018-07-01T00:03:56.707Z,0.00
2018-07-01T00:04:56.659Z,0.00
2018-07-01T00:05:56.628Z,0.00
2018-07-01T00:06:56.618Z,0.00
2018-07-01T00:07:56.602Z,0.00
2018-07-01T00:08:56.546Z,0.00
2018-07-01T00:09:56.516Z,0.00
2018-07-01T00:10:56.461Z,0.00
2018-07-01T00:11:56.427Z,0.00
2018-07-01T00:12:56.458Z,0.00
2018-07-01T00:13:56.370Z,0.00
2018-07-01T00:14:56.356Z,0.00
2018-07-01T00:15:56.308Z,0.00
2018-07-01T00:16:56.341Z,0.00
2018-07-01T00:17:56.244Z,0.00
2018-07-01T00:18:56.233Z,0.00
2018-07-01T00:19:56.221Z,0.00
2018-07-01T00:20:56.147Z,0.00
2018-07-01T00:21:56.116Z,0.00
2018-07-01T00:22:56.549Z,0.00
2018-07-01T00:23:56.063Z,0.00
2018-07-01T00:24:56.030Z,0.00
2018-07-01T00:25:56.007Z,0.00
2018-07-01T00:26:55.967Z,0.00
2018-07-01T00:27:55.943Z,0.00
2018-07-01T00:28:55.899Z,0.00
2018-07-01T00:29:55.866Z,0.00
2018-07-01T00:30:55.869Z,0.00
2018-07-01T00:31:55.795Z,0.00
2018-07-01T00:32:55.802Z,0.00
2018-07-01T00:33:55.741Z,0.00
2018-07-01T00:34:55.745Z,0.00
2018-07-01T00:35:55.709Z,0.00
2018-07-01T00:36:55.650Z,0.00
2018-07-01T00:37:55.659Z,0.00
2018-07-01T00:38:55.570Z,0.00
2018-07-01T00:39:55.558Z,0.00
2018-07-01T00:40:55.507Z,0.00
2018-07-01T00:41:55.469Z,0.00
2018-07-01T00:42:55.436Z,0.00
2018-07-01T00:43:55.424Z,0.00
2018-07-01T00:44:55.398Z,0.00
2018-07-01T00:45:55.353Z,0.00
2018-07-01T00:46:55.325Z,0.00
2018-07-01T00:47:55.297Z,0.00
2018-07-01T00:48:55.246Z,0.00
2018-07-01T00:49:55.242Z,0.00
2018-07-01T00:50:55.210Z,0.00
2018-07-01T00:51:55.147Z,0.00
2018-07-01T00:52:55.122Z,0.00
2018-07-01T00:53:55.093Z,0.00
2018-07-01T00:54:55.055Z,0.00
2018-07-01T00:55:55.026Z,0.00
2018-07-01T00:56:54.990Z,0.00
2018-07-01T00:57:54.960Z,0.00
2018-07-01T00:58:54.928Z,0.00
2018-07-01T00:59:54.912Z,0.00
2018-07-01T01:00:54.856Z,0.00
2018-07-01T01:01:54.829Z,0.00
2018-07-01T01:02:54.814Z,0.00
2018-07-01T01:03:54.784Z,0.00
2018-07-01T01:04:54.763Z,0.00
2018-07-01T01:05:54.708Z,0.00
2018-07-01T01:06:54.702Z,0.00
2018-07-01T01:07:54.649Z,0.00
2018-07-01T01:08:54.614Z,0.00
2018-07-01T01:09:54.627Z,0.00
2018-07-01T01:10:54.541Z,0.00
2018-07-01T01:11:54.509Z,0.00
2018-07-01T01:12:54.485Z,0.00
2018-07-01T01:13:54.447Z,0.00
2018-07-01T01:14:54.423Z,0.00
2018-07-01T01:15:54.373Z,0.00
2018-07-01T01:16:54.350Z,0.00
2018-07-01T01:17:54.357Z,0.00
2018-07-01T01:18:54.283Z,0.00
2018-07-01T01:19:54.249Z,0.00
2018-07-01T01:20:54.221Z,0.00
2018-07-01T01:21:54.186Z,0.00
2018-07-01T01:22:54.183Z,0.00
2018-07-01T01:23:54.125Z,0.00
2018-07-01T01:24:54.085Z,0.00
2018-07-01T01:25:54.094Z,0.00
2018-07-01T01:26:54.042Z,0.00
2018-07-01T01:27:53.990Z,0.00
2018-07-01T01:28:53.985Z,0.00
2018-07-01T01:29:53.931Z,0.00
2018-07-01T01:30:53.900Z,0.00
2018-07-01T01:31:53.862Z,0.00
2018-07-01T01:32:53.828Z,0.00
2018-07-01T01:33:53.827Z,0.00
2018-07-01T01:34:53.782Z,0.00
2018-07-01T01:35:53.851Z,0.00
2018-07-01T01:36:53.698Z,0.00
2018-07-01T01:37:53.685Z,0.00
2018-07-01T01:38:53.647Z,0.00
2018-07-01T01:39:54.157Z,0.00
2018-07-01T01:40:53.570Z,0.00
2018-07-01T01:41:53.533Z,0.00
2018-07-01T01:42:53.497Z,0.00
2018-07-01T01:43:53.477Z,0.00
2018-07-01T01:44:53.441Z,0.00
2018-07-01T01:45:53.439Z,0.00
2018-07-01T01:46:53.394Z,0.00
2018-07-01T01:47:53.354Z,0.00
2018-07-01T01:48:53.344Z,0.00
2018-07-01T01:49:53.267Z,0.00
2018-07-01T01:50:53.256Z,0.00
2018-07-01T01:51:53.279Z,0.00
2018-07-01T01:52:53.203Z,0.00
2018-07-01T01:53:53.178Z,0.00
2018-07-01T01:54:53.108Z,0.00
2018-07-01T01:55:53.115Z,0.00
2018-07-01T01:56:53.065Z,0.00
2018-07-01T01:57:53.014Z,0.00
2018-07-01T01:58:52.975Z,0.00
2018-07-01T01:59:52.968Z,0.00
2018-07-01T02:00:52.912Z,0.00
2018-07-01T02:01:52.883Z,0.00
2018-07-01T02:02:52.864Z,0.00
2018-07-01T02:03:52.837Z,0.00
2018-07-01T02:04:52.786Z,0.00
2018-07-01T02:05:52.755Z,0.00
2018-07-01T02:06:52.715Z,0.00
2018-07-01T02:07:52.689Z,0.00
2018-07-01T02:08:52.672Z,0.00
2018-07-01T02:09:52.627Z,0.00
2018-07-01T02:10:52.593Z,0.00
2018-07-01T02:11:52.557Z,0.00
2018-07-01T02:12:52.549Z,0.00
2018-07-01T02:13:52.518Z,0.00
2018-07-01T02:14:52.452Z,0.00
2018-07-01T02:15:52.426Z,0.00
2018-07-01T02:16:52.419Z,0.00
2018-07-01T02:17:52.352Z,0.00
2018-07-01T02:18:52.348Z,0.00
2018-07-01T02:19:52.293Z,0.00
2018-07-01T02:20:52.257Z,0.00
2018-07-01T02:21:52.229Z,0.00
2018-07-01T02:22:52.194Z,0.00
2018-07-01T02:23:52.208Z,0.00
2018-07-01T02:24:52.148Z,0.00
2018-07-01T02:25:52.109Z,0.00
2018-07-01T02:26:52.070Z,0.00
2018-07-01T02:27:52.066Z,0.00
2018-07-01T02:28:52.090Z,0.00
2018-07-01T02:29:51.979Z,0.00
2018-07-01T02:30:53.166Z,0.00
2018-07-01T02:31:53.124Z,0.00
2018-07-01T02:32:51.886Z,0.00
2018-07-01T02:33:51.907Z,0.00
2018-07-01T02:34:51.847Z,0.00
2018-07-01T02:35:51.854Z,0.00
2018-07-01T02:36:51.777Z,0.00
2018-07-01T02:37:51.707Z,0.00
2018-07-01T02:38:51.684Z,0.00
2018-07-01T02:39:51.635Z,0.00
2018-07-01T02:40:51.612Z,0.00
2018-07-01T02:41:51.600Z,0.00
2018-07-01T02:42:51.544Z,0.00
2018-07-01T02:43:51.551Z,0.00
2018-07-01T02:44:51.480Z,0.00
2018-07-01T02:45:51.509Z,0.00
2018-07-01T02:46:51.408Z,0.00
2018-07-01T02:47:51.395Z,0.00
2018-07-01T02:48:51.342Z,0.00
2018-07-01T02:49:51.334Z,0.00
2018-07-01T02:50:51.478Z,0.00
2018-07-01T02:51:51.241Z,0.00
2018-07-01T02:52:51.205Z,0.00
2018-07-01T02:53:51.267Z,0.00
2018-07-01T02:54:51.138Z,0.00
2018-07-01T02:55:51.115Z,0.00
2018-07-01T02:56:51.095Z,0.00
2018-07-01T02:57:51.065Z,0.00
2018-07-01T02:58:51.100Z,0.00
2018-07-01T02:59:51.015Z,0.00
2018-07-01T03:00:50.962Z,0.00
2018-07-01T03:01:50.941Z,0.00
2018-07-01T03:02:50.871Z,0.00
2018-07-01T03:03:50.843Z,0.00
2018-07-01T03:04:50.815Z,0.00
2018-07-01T03:05:50.806Z,0.00
2018-07-01T03:06:50.905Z,0.00
2018-07-01T03:07:50.751Z,0.00
2018-07-01T03:08:50.676Z,0.00
2018-07-01T03:09:50.645Z,0.00
2018-07-01T03:10:50.643Z,0.00
2018-07-01T03:11:50.631Z,0.00
2018-07-01T03:12:50.547Z,0.00
2018-07-01T03:13:50.521Z,0.00
2018-07-01T03:14:50.513Z,0.00
2018-07-01T03:15:50.464Z,0.00
2018-07-01T03:16:50.413Z,0.00
2018-07-01T03:17:50.414Z,0.00
2018-07-01T03:18:50.349Z,0.00
2018-07-01T03:19:50.313Z,5.63
2018-07-01T03:20:50.284Z,5.63
2018-07-01T03:21:50.248Z,5.63
2018-07-01T03:22:50.220Z,5.63
2018-07-01T03:23:50.179Z,5.63
2018-07-01T03:24:50.264Z,5.63
2018-07-01T03:25:50.113Z,5.63
2018-07-01T03:26:50.091Z,5.63
2018-07-01T03:27:50.061Z,5.63
2018-07-01T03:28:50.032Z,5.63
2018-07-01T03:29:49.995Z,11.25
2018-07-01T03:30:49.956Z,11.25
2018-07-01T03:31:49.926Z,11.25
2018-07-01T03:32:49.886Z,11.25
2018-07-01T03:33:49.852Z,11.25
2018-07-01T03:34:49.820Z,16.88
2018-07-01T03:35:49.784Z,16.88
2018-07-01T03:36:49.789Z,16.88
2018-07-01T03:37:49.738Z,16.88
2018-07-01T03:38:49.685Z,22.50
2018-07-01T03:39:49.657Z,22.50
2018-07-01T03:40:49.626Z,22.50
2018-07-01T03:41:50.133Z,22.50
2018-07-01T03:42:49.552Z,22.50
2018-07-01T03:43:49.541Z,28.13
2018-07-01T03:44:49.502Z,28.13
2018-07-01T03:45:49.454Z,28.13
2018-07-01T03:46:49.432Z,33.75
2018-07-01T03:47:49.401Z,33.75
2018-07-01T03:48:49.378Z,33.75
2018-07-01T03:49:49.361Z,39.38
2018-07-01T03:50:49.296Z,39.38
2018-07-01T03:51:49.273Z,39.38
2018-07-01T03:52:49.217Z,39.38
2018-07-01T03:53:49.214Z,45.00
2018-07-01T03:54:49.156Z,45.00
2018-07-01T03:55:49.507Z,45.00
2018-07-01T03:56:49.107Z,45.00
2018-07-01T03:57:49.205Z,50.63
2018-07-01T03:58:49.017Z,50.63
2018-07-01T03:59:48.995Z,50.63
2018-07-01T04:00:49.292Z,56.25
2018-07-01T04:01:48.979Z,56.25
2018-07-01T04:02:48.919Z,56.25
2018-07-01T04:03:48.896Z,56.25
2018-07-01T04:04:48.885Z,56.25
2018-07-01T04:05:48.792Z,56.25
2018-07-01T04:06:48.786Z,61.88
2018-07-01T04:07:48.766Z,61.88
2018-07-01T04:08:48.693Z,61.88
2018-07-01T04:09:48.669Z,61.88
2018-07-01T04:10:48.623Z,61.88
2018-07-01T04:11:48.612Z,67.50
2018-07-01T04:12:48.646Z,67.50
2018-07-01T04:13:48.560Z,67.50
2018-07-01T04:14:48.515Z,73.13
2018-07-01T04:15:48.513Z,73.13
2018-07-01T04:16:48.448Z,73.13
2018-07-01T04:17:48.395Z,73.13
2018-07-01T04:18:48.420Z,78.75
2018-07-01T04:19:48.328Z,78.75
2018-07-01T04:20:48.320Z,78.75
2018-07-01T04:21:48.274Z,78.75
2018-07-01T04:22:48.251Z,78.75
2018-07-01T04:23:48.225Z,78.75
2018-07-01T04:24:48.437Z,84.38
2018-07-01T04:25:48.154Z,84.38
2018-07-01T04:26:48.098Z,84.38
2018-07-01T04:27:48.083Z,90.00
2018-07-01T04:28:48.056Z,90.00
2018-07-01T04:29:48.023Z,90.00
2018-07-01T04:30:47.968Z,90.00
2018-07-01T04:31:47.949Z,90.00
2018-07-01T04:32:47.950Z,90.00
2018-07-01T04:33:47.876Z,90.00
2018-07-01T04:34:47.838Z,95.63
2018-07-01T04:35:47.828Z,95.63
2018-07-01T04:36:47.826Z,95.63
2018-07-01T04:37:47.790Z,95.63
2018-07-01T04:38:47.705Z,101.25
2018-07-01T04:39:47.682Z,106.88
2018-07-01T04:40:47.643Z,101.25
2018-07-01T04:41:47.613Z,101.25
2018-07-01T04:42:47.581Z,101.25
2018-07-01T04:43:47.646Z,106.88
2018-07-01T04:44:47.528Z,106.88
2018-07-01T04:45:47.483Z,106.88
2018-07-01T04:46:47.477Z,106.88
2018-07-01T04:47:47.527Z,112.50
2018-07-01T04:48:47.404Z,112.50
2018-07-01T04:49:47.371Z,112.50
2018-07-01T04:50:47.368Z,112.50
2018-07-01T04:51:47.290Z,112.50
2018-07-01T04:52:47.274Z,118.13
2018-07-01T04:53:47.229Z,112.50
2018-07-01T04:54:47.185Z,118.13
2018-07-01T04:55:47.164Z,118.13
2018-07-01T04:56:47.150Z,118.13
2018-07-01T04:57:47.101Z,118.13
2018-07-01T04:58:47.079Z,118.13
2018-07-01T04:59:47.032Z,118.13
2018-07-01T05:00:47.013Z,118.13
2018-07-01T05:01:47.038Z,95.63
2018-07-01T05:02:46.926Z,106.88
2018-07-01T05:03:46.908Z,123.75
2018-07-01T05:04:46.874Z,123.75
2018-07-01T05:05:46.878Z,123.75
2018-07-01T05:06:46.859Z,123.75
2018-07-01T05:07:46.770Z,129.38
2018-07-01T05:08:47.118Z,129.38
2018-07-01T05:09:46.712Z,129.38
2018-07-01T05:10:46.722Z,129.38
2018-07-01T05:11:46.657Z,129.38
2018-07-01T05:12:46.605Z,129.38
2018-07-01T05:13:46.594Z,135.00
2018-07-01T05:14:46.549Z,140.63
2018-07-01T05:15:46.514Z,140.63
2018-07-01T05:16:46.536Z,140.63
2018-07-01T05:17:46.510Z,135.00
2018-07-01T05:18:46.413Z,135.00
2018-07-01T05:19:46.475Z,129.38
2018-07-01T05:20:46.440Z,135.00
2018-07-01T05:21:46.329Z,135.00
2018-07-01T05:22:46.336Z,140.63
2018-07-01T05:23:46.256Z,140.63
2018-07-01T05:24:46.245Z,146.25
2018-07-01T05:25:46.221Z,151.88
2018-07-01T05:26:46.185Z,151.88
2018-07-01T05:27:46.132Z,151.88
2018-07-01T05:28:46.100Z,151.88
2018-07-01T05:29:46.064Z,151.88
2018-07-01T05:30:46.043Z,151.88
2018-07-01T05:31:46.005Z,151.88
2018-07-01T05:32:45.972Z,157.50
2018-07-01T05:33:46.012Z,157.50
2018-07-01T05:34:45.906Z,157.50
2018-07-01T05:35:45.874Z,151.88
2018-07-01T05:36:45.849Z,151.88
2018-07-01T05:37:45.813Z,157.50
2018-07-01T05:38:45.779Z,157.50
2018-07-01T05:39:45.749Z,157.50
2018-07-01T05:40:45.717Z,157.50
2018-07-01T05:41:45.685Z,157.50
2018-07-01T05:42:45.656Z,157.50
2018-07-01T05:43:45.620Z,157.50
2018-07-01T05:44:45.589Z,157.50
2018-07-01T05:45:45.556Z,157.50
2018-07-01T05:46:45.526Z,157.50
2018-07-01T05:47:45.496Z,157.50
2018-07-01T05:48:45.463Z,157.50
2018-07-01T05:49:45.581Z,157.50
2018-07-01T05:50:45.398Z,157.50
2018-07-01T05:51:45.365Z,163.13
2018-07-01T05:52:45.336Z,163.13
2018-07-01T05:53:45.302Z,163.13
2018-07-01T05:54:45.272Z,163.13
2018-07-01T05:55:45.240Z,163.13
2018-07-01T05:56:45.210Z,163.13
2018-07-01T05:57:45.176Z,163.13
2018-07-01T05:58:45.143Z,163.13
2018-07-01T05:59:45.115Z,163.13
2018-07-01T06:00:45.088Z,168.75
2018-07-01T06:01:45.052Z,168.75
2018-07-01T06:02:45.023Z,168.75
2018-07-01T06:03:44.990Z,163.13
2018-07-01T06:04:44.958Z,168.75
2018-07-01T06:05:44.926Z,168.75
2018-07-01T06:06:44.892Z,168.75
2018-07-01T06:07:44.861Z,168.75
2018-07-01T06:08:44.864Z,168.75
2018-07-01T06:09:44.798Z,168.75
2018-07-01T06:10:44.767Z,168.75
2018-07-01T06:11:44.737Z,174.38
2018-07-01T06:12:44.705Z,174.38
2018-07-01T06:13:44.671Z,174.38
2018-07-01T06:14:44.642Z,174.38
2018-07-01T06:15:44.612Z,174.38
2018-07-01T06:16:44.607Z,174.38
2018-07-01T06:17:44.547Z,174.38
2018-07-01T06:18:44.524Z,174.38
2018-07-01T06:19:44.485Z,174.38
2018-07-01T06:20:44.454Z,174.38
2018-07-01T06:21:44.424Z,180.00
2018-07-01T06:22:44.395Z,180.00
2018-07-01T06:23:44.360Z,180.00
2018-07-01T06:24:44.329Z,180.00
2018-07-01T06:25:44.296Z,180.00
2018-07-01T06:26:44.266Z,180.00
2018-07-01T06:27:44.230Z,180.00
2018-07-01T06:28:44.205Z,185.63
2018-07-01T06:29:44.171Z,180.00
2018-07-01T06:30:44.143Z,180.00
2018-07-01T06:31:44.111Z,180.00
2018-07-01T06:32:44.111Z,185.63
2018-07-01T06:33:44.066Z,185.63
2018-07-01T06:34:44.021Z,185.63
2018-07-01T06:35:43.986Z,185.63
2018-07-01T06:36:43.956Z,185.63
2018-07-01T06:37:44.029Z,185.63
2018-07-01T06:38:44.052Z,185.63
2018-07-01T06:39:43.860Z,185.63
2018-07-01T06:40:43.853Z,185.63
2018-07-01T06:41:43.798Z,191.25
2018-07-01T06:42:43.771Z,191.25
2018-07-01T06:43:43.737Z,191.25
2018-07-01T06:44:43.718Z,191.25
2018-07-01T06:45:43.672Z,191.25
2018-07-01T06:46:43.644Z,191.25
2018-07-01T06:47:43.611Z,191.25
2018-07-01T06:48:43.582Z,191.25
2018-07-01T06:49:43.549Z,191.25
2018-07-01T06:50:43.517Z,191.25
2018-07-01T06:51:43.489Z,185.63
2018-07-01T06:52:43.470Z,180.00
2018-07-01T06:53:43.426Z,180.00
2018-07-01T06:54:43.393Z,180.00
2018-07-01T06:55:43.365Z,185.63
2018-07-01T06:56:43.331Z,185.63
2018-07-01T06:57:43.299Z,185.63
2018-07-01T06:58:43.273Z,185.63
2018-07-01T06:59:43.239Z,185.63
2018-07-01T07:00:43.210Z,185.63
2018-07-01T07:01:43.169Z,191.25
2018-07-01T07:02:43.150Z,191.25
2018-07-01T07:03:43.115Z,202.50
2018-07-01T07:04:43.087Z,202.50
2018-07-01T07:05:43.052Z,196.88
2018-07-01T07:06:43.023Z,191.25
2018-07-01T07:07:43.028Z,191.25
2018-07-01T07:08:42.964Z,191.25
2018-07-01T07:09:43.118Z,191.25
2018-07-01T07:10:42.901Z,191.25
2018-07-01T07:11:42.873Z,191.25
2018-07-01T07:12:42.840Z,191.25
2018-07-01T07:13:42.810Z,191.25
2018-07-01T07:14:42.776Z,196.88
2018-07-01T07:15:42.748Z,196.88
2018-07-01T07:16:42.716Z,196.88
2018-07-01T07:17:42.686Z,196.88
2018-07-01T07:18:42.653Z,196.88
2018-07-01T07:19:42.624Z,196.88
2018-07-01T07:20:42.591Z,196.88
2018-07-01T07:21:42.564Z,196.88
2018-07-01T07:22:42.532Z,202.50
2018-07-01T07:23:42.501Z,202.50
2018-07-01T07:24:42.477Z,202.50
2018-07-01T07:25:42.443Z,208.13
2018-07-01T07:26:42.411Z,208.13
2018-07-01T07:27:42.379Z,208.13
2018-07-01T07:28:42.350Z,208.13
2018-07-01T07:29:42.320Z,213.75
2018-07-01T07:30:42.315Z,213.75
2018-07-01T07:31:42.258Z,213.75
2018-07-01T07:32:42.229Z,213.75
2018-07-01T07:33:42.197Z,213.75
2018-07-01T07:34:42.168Z,219.38
2018-07-01T07:35:42.136Z,219.38
2018-07-01T07:36:42.107Z,219.38
2018-07-01T07:37:42.076Z,219.38
2018-07-01T07:38:42.045Z,219.38
2018-07-01T07:39:42.017Z,219.38
2018-07-01T07:40:41.989Z,219.38
2018-07-01T07:41:42.726Z,225.00
2018-07-01T07:42:41.927Z,219.38
2018-07-01T07:43:42.373Z,230.63
2018-07-01T07:44:41.865Z,230.63
2018-07-01T07:45:41.841Z,225.00
2018-07-01T07:46:41.805Z,230.63
2018-07-01T07:47:41.774Z,236.25
2018-07-01T07:48:41.767Z,241.88
2018-07-01T07:49:41.716Z,241.88
2018-07-01T07:50:41.684Z,241.88
2018-07-01T07:51:41.655Z,241.88
2018-07-01T07:52:41.627Z,247.50
2018-07-01T07:53:41.595Z,247.50
2018-07-01T07:54:41.569Z,247.50
2018-07-01T07:55:41.536Z,253.13
2018-07-01T07:56:41.504Z,253.13
2018-07-01T07:57:41.475Z,253.13
2018-07-01T07:58:41.444Z,258.75
2018-07-01T07:59:41.440Z,258.75
2018-07-01T08:00:41.386Z,264.38
2018-07-01T08:01:41.358Z,264.38
2018-07-01T08:02:41.326Z,264.38
2018-07-01T08:03:44.276Z,264.38
2018-07-01T08:04:41.272Z,264.38
2018-07-01T08:05:41.238Z,264.38
2018-07-01T08:06:41.200Z,264.38
2018-07-01T08:07:41.177Z,264.38
2018-07-01T08:08:41.151Z,270.00
2018-07-01T08:09:41.120Z,270.00
2018-07-01T08:10:41.091Z,270.00
2018-07-01T08:11:41.059Z,270.00
2018-07-01T08:12:41.040Z,275.63
2018-07-01T08:13:41.004Z,275.63
2018-07-01T08:14:40.979Z,275.63
2018-07-01T08:15:40.946Z,275.63
2018-07-01T08:16:40.924Z,281.25
2018-07-01T08:17:40.889Z,286.88
2018-07-01T08:18:40.861Z,281.25
2018-07-01T08:19:40.833Z,281.25
2018-07-01T08:20:40.806Z,286.88
2018-07-01T08:21:40.775Z,286.88
2018-07-01T08:22:40.746Z,281.25
2018-07-01T08:23:40.718Z,281.25
2018-07-01T08:24:40.691Z,286.88
2018-07-01T08:25:40.659Z,298.13
2018-07-01T08:26:40.636Z,286.88
2018-07-01T08:27:40.606Z,292.50
2018-07-01T08:28:40.577Z,292.50
2018-07-01T08:29:40.542Z,292.50
2018-07-01T08:30:40.520Z,298.13
2018-07-01T08:31:40.490Z,303.75
2018-07-01T08:32:40.462Z,298.13
2018-07-01T08:33:40.438Z,303.75
2018-07-01T08:34:40.443Z,303.75
2018-07-01T08:35:40.383Z,309.38
2018-07-01T08:36:40.352Z,309.38
2018-07-01T08:37:40.325Z,315.00
2018-07-01T08:38:40.296Z,309.38
2018-07-01T08:39:40.270Z,315.00
2018-07-01T08:40:40.243Z,320.63
2018-07-01T08:41:40.213Z,315.00
2018-07-01T08:42:40.187Z,320.63
2018-07-01T08:43:40.159Z,320.63
2018-07-01T08:44:40.129Z,326.25
2018-07-01T08:45:40.104Z,326.25
2018-07-01T08:46:40.074Z,331.88
2018-07-01T08:47:40.187Z,337.50
2018-07-01T08:48:40.213Z,331.88
2018-07-01T08:49:39.998Z,354.38
2018-07-01T08:50:39.965Z,343.13
2018-07-01T08:51:39.937Z,354.38
2018-07-01T08:52:39.976Z,360.00
2018-07-01T08:53:39.884Z,371.25
2018-07-01T08:54:39.857Z,376.88
2018-07-01T08:55:39.836Z,382.50
2018-07-01T08:56:39.805Z,399.38
2018-07-01T08:57:39.773Z,427.50
2018-07-01T08:58:39.748Z,416.25
2018-07-01T08:59:39.733Z,421.88
2018-07-01T09:00:39.696Z,416.25
2018-07-01T09:01:39.671Z,405.00
2018-07-01T09:02:39.641Z,405.00
2018-07-01T09:03:39.618Z,489.38
2018-07-01T09:04:39.590Z,455.63
2018-07-01T09:05:39.565Z,433.13
2018-07-01T09:06:39.528Z,455.63
2018-07-01T09:07:39.509Z,444.38
2018-07-01T09:08:39.526Z,461.25
2018-07-01T09:09:39.457Z,478.13
2018-07-01T09:10:39.430Z,466.88
2018-07-01T09:11:39.403Z,478.13
2018-07-01T09:12:39.375Z,478.13
2018-07-01T09:13:39.349Z,472.50
2018-07-01T09:14:39.344Z,478.13
2018-07-01T09:15:39.297Z,466.88
2018-07-01T09:16:39.274Z,495.00
2018-07-01T09:17:39.243Z,489.38
2018-07-01T09:18:39.214Z,517.50
2018-07-01T09:19:39.190Z,540.00
2018-07-01T09:20:39.164Z,630.00
2018-07-01T09:21:39.135Z,613.13
2018-07-01T09:22:39.110Z,697.50
2018-07-01T09:23:39.082Z,753.75
2018-07-01T09:24:39.056Z,748.13
2018-07-01T09:25:39.028Z,1051.88
2018-07-01T09:26:39.011Z,680.63
2018-07-01T09:27:38.981Z,675.00
2018-07-01T09:28:38.953Z,1063.13
2018-07-01T09:29:38.926Z,877.50
2018-07-01T09:30:38.900Z,855.00
2018-07-01T09:31:38.875Z,708.75
2018-07-01T09:32:38.849Z,669.38
2018-07-01T09:33:38.819Z,601.88
2018-07-01T09:34:38.816Z,573.75
2018-07-01T09:35:38.770Z,562.50
2018-07-01T09:36:38.749Z,562.50
2018-07-01T09:37:38.717Z,568.13
2018-07-01T09:38:38.695Z,590.63
2018-07-01T09:39:38.667Z,613.13
2018-07-01T09:40:38.642Z,624.38
2018-07-01T09:41:39.537Z,658.13
2018-07-01T09:42:38.590Z,691.88
2018-07-01T09:43:38.564Z,832.50
2018-07-01T09:44:38.539Z,832.50
2018-07-01T09:45:38.511Z,877.50
2018-07-01T09:46:38.486Z,922.50
2018-07-01T09:47:38.461Z,945.00
2018-07-01T09:48:38.438Z,978.75
2018-07-01T09:49:38.412Z,1001.25
2018-07-01T09:50:38.442Z,1063.13
2018-07-01T09:51:38.357Z,1074.38
2018-07-01T09:52:38.335Z,1096.88
2018-07-01T09:53:38.316Z,1046.25
2018-07-01T09:54:38.279Z,1063.13
2018-07-01T09:55:38.258Z,1057.50
2018-07-01T09:56:38.233Z,1085.63
2018-07-01T09:57:38.205Z,1040.63
2018-07-01T09:58:38.182Z,1051.88
2018-07-01T09:59:38.156Z,1192.50
2018-07-01T10:00:38.756Z,1226.25
2018-07-01T10:01:38.104Z,1125.00
2018-07-01T10:02:38.080Z,1125.00
2018-07-01T10:03:38.051Z,1080.00
2018-07-01T10:04:38.039Z,1102.50
2018-07-01T10:05:38.006Z,1130.63
2018-07-01T10:06:37.980Z,1125.00
2018-07-01T10:07:37.951Z,1141.88
2018-07-01T10:08:37.930Z,1170.00
2018-07-01T10:09:37.902Z,1136.25
2018-07-01T10:10:37.875Z,1147.50
2018-07-01T10:11:37.853Z,1209.38
2018-07-01T10:12:37.827Z,1198.13
2018-07-01T10:13:37.802Z,1220.63
2018-07-01T10:14:37.777Z,1305.00
2018-07-01T10:15:37.755Z,1293.75
2018-07-01T10:16:37.728Z,1293.75
2018-07-01T10:17:37.703Z,1338.75
2018-07-01T10:18:37.678Z,1440.00
2018-07-01T10:19:37.655Z,1389.38
2018-07-01T10:20:37.629Z,1434.38
2018-07-01T10:21:37.606Z,1428.75
2018-07-01T10:22:37.580Z,1558.13
2018-07-01T10:24:03.168Z,1496.25
2018-07-01T10:24:37.529Z,1513.13
2018-07-01T10:25:37.509Z,1552.50
2018-07-01T10:26:37.537Z,1620.00
2018-07-01T10:27:37.458Z,1608.75
2018-07-01T10:28:37.439Z,1625.63
2018-07-01T10:29:37.407Z,1614.38
2018-07-01T10:30:37.382Z,1659.38
2018-07-01T10:31:37.364Z,1704.38
2018-07-01T10:32:37.334Z,1648.13
2018-07-01T10:33:37.310Z,1620.00
2018-07-01T10:34:37.287Z,1681.88
2018-07-01T10:35:37.262Z,1693.13
2018-07-01T10:36:37.240Z,1698.75
2018-07-01T10:37:37.219Z,1710.00
2018-07-01T10:38:37.191Z,1704.38
2018-07-01T10:39:37.185Z,1620.00
2018-07-01T10:40:37.143Z,1687.50
2018-07-01T10:41:37.117Z,1541.25
2018-07-01T10:42:37.092Z,1445.63
2018-07-01T10:43:37.070Z,1546.88
2018-07-01T10:44:37.046Z,1569.38
2018-07-01T10:45:37.032Z,1580.63
2018-07-01T10:46:36.996Z,1586.25
2018-07-01T10:47:36.972Z,1580.63
2018-07-01T10:48:36.947Z,1563.75
2018-07-01T10:49:37.484Z,1608.75
2018-07-01T10:50:36.899Z,1580.63
2018-07-01T10:51:36.922Z,1653.75
2018-07-01T10:52:36.851Z,1681.88
2018-07-01T10:53:36.826Z,1614.38
2018-07-01T10:54:36.804Z,1552.50
2018-07-01T10:55:36.783Z,1485.00
2018-07-01T10:56:36.754Z,1468.13
2018-07-01T10:57:36.777Z,1445.63
2018-07-01T10:58:36.705Z,1316.25
2018-07-01T10:59:36.682Z,984.38
2018-07-01T11:00:36.659Z,697.50
2018-07-01T11:01:36.727Z,646.88
2018-07-01T11:02:36.607Z,635.63
2018-07-01T11:03:36.589Z,601.88
2018-07-01T11:04:36.560Z,596.25
2018-07-01T11:05:36.790Z,579.38
2018-07-01T11:06:36.966Z,573.75
2018-07-01T11:07:36.488Z,568.13
2018-07-01T11:08:36.462Z,568.13
2018-07-01T11:09:36.439Z,568.13
2018-07-01T11:10:36.420Z,579.38
2018-07-01T11:11:36.432Z,590.63
2018-07-01T11:12:36.367Z,596.25
2018-07-01T11:13:36.345Z,613.13
2018-07-01T11:14:36.319Z,635.63
2018-07-01T11:15:36.297Z,652.50
2018-07-01T11:16:36.265Z,675.00
2018-07-01T11:17:36.248Z,787.50
2018-07-01T11:18:36.226Z,1001.25
2018-07-01T11:19:36.199Z,1203.75
2018-07-01T11:20:36.178Z,1305.00
2018-07-01T11:21:36.155Z,1260.00
2018-07-01T11:22:36.135Z,1068.75
2018-07-01T11:23:36.103Z,821.25
2018-07-01T11:24:36.082Z,821.25
2018-07-01T11:25:36.060Z,1091.25
2018-07-01T11:26:36.100Z,1389.38
2018-07-01T11:27:36.180Z,1012.50
2018-07-01T11:28:36.001Z,748.13
2018-07-01T11:29:36.006Z,697.50
2018-07-01T11:30:35.944Z,686.25
2018-07-01T11:31:36.357Z,680.63
2018-07-01T11:32:35.895Z,759.38
2018-07-01T11:33:35.872Z,787.50
2018-07-01T11:34:35.844Z,832.50
2018-07-01T11:35:35.822Z,928.13
2018-07-01T11:36:35.831Z,1018.13
2018-07-01T11:37:35.775Z,1096.88
2018-07-01T11:38:35.750Z,1209.38
2018-07-01T11:39:35.736Z,1305.00
2018-07-01T11:40:35.704Z,1203.75
2018-07-01T11:41:35.701Z,1153.13
2018-07-01T11:42:35.726Z,1361.25
2018-07-01T11:43:35.637Z,1541.25
2018-07-01T11:44:35.624Z,1721.25
2018-07-01T11:45:35.580Z,1996.88
2018-07-01T11:46:35.560Z,2205.00
2018-07-01T11:47:35.701Z,2199.38
2018-07-01T11:48:35.515Z,2143.13
2018-07-01T11:49:35.494Z,1923.75
2018-07-01T11:50:35.475Z,1873.13
2018-07-01T11:51:35.463Z,1878.75
2018-07-01T11:52:35.425Z,1861.88
2018-07-01T11:53:35.399Z,1822.50
2018-07-01T11:54:35.382Z,1760.63
2018-07-01T11:55:35.355Z,1670.63
2018-07-01T11:56:35.331Z,1603.13
2018-07-01T11:57:35.307Z,1575.00
2018-07-01T11:58:35.281Z,1563.75
2018-07-01T11:59:35.259Z,1569.38
2018-07-01T12:00:35.265Z,1282.50
2018-07-01T12:01:35.213Z,680.63
2018-07-01T12:02:35.191Z,630.00
2018-07-01T12:03:35.175Z,601.88
2018-07-01T12:04:35.144Z,585.00
2018-07-01T12:05:35.277Z,573.75
2018-07-01T12:06:35.099Z,590.63
2018-07-01T12:07:35.074Z,646.88
2018-07-01T12:08:35.049Z,1125.00
2018-07-01T12:09:35.026Z,1479.38
2018-07-01T12:10:35.005Z,1468.13
2018-07-01T12:11:34.980Z,1530.00
2018-07-01T12:12:34.960Z,1305.00
2018-07-01T12:13:34.933Z,714.38
2018-07-01T12:14:34.910Z,585.00
2018-07-01T12:15:34.885Z,562.50
2018-07-01T12:16:34.869Z,545.63
2018-07-01T12:17:34.840Z,540.00
2018-07-01T12:18:34.815Z,534.38
2018-07-01T12:19:34.788Z,528.75
2018-07-01T12:20:34.770Z,551.25
2018-07-01T12:21:34.745Z,630.00
2018-07-01T12:22:35.482Z,1215.00
2018-07-01T12:23:34.765Z,1676.25
2018-07-01T12:24:34.673Z,1867.50
2018-07-01T12:25:34.650Z,1901.25
2018-07-01T12:26:34.630Z,1901.25
2018-07-01T12:27:34.606Z,1805.63
2018-07-01T12:28:34.581Z,1327.50
2018-07-01T12:29:34.558Z,849.38
2018-07-01T12:30:34.531Z,635.63
2018-07-01T12:31:34.506Z,607.50
2018-07-01T12:32:34.718Z,585.00
2018-07-01T12:33:34.459Z,568.13
2018-07-01T12:34:34.436Z,556.88
2018-07-01T12:35:34.415Z,556.88
2018-07-01T12:36:34.391Z,736.88
2018-07-01T12:37:34.368Z,1338.75
2018-07-01T12:38:34.344Z,1496.25
2018-07-01T12:39:34.318Z,860.63
2018-07-01T12:40:34.297Z,511.88